Time;durP1;ratioP1;P1;durP2;ratioP2;P2;SDS_P1;SDS_P2;PMS_P1;PMS_P2;Temp;Humidity;BMP_temperature;BMP_pressure;BME280_temperature;BME280_humidity;BME280_pressure;Samples;Min_cycle;Max_cycle;Signal;HPM_P1;HPM_P2
2022/08/28 00:01:14;;;;;;;9.40;1.98;;;13.10;99.90;;;;;;4899376;29;20021;-86
2022/08/28 00:03:40;;;;;;;7.80;2.03;;;13.20;99.90;;;;;;4900663;29;20020;-86
2022/08/28 00:06:07;;;;;;;6.80;2.03;;;13.20;99.90;;;;;;4899266;29;20133;-86
2022/08/28 00:08:33;;;;;;;8.25;2.10;;;13.20;99.90;;;;;;4899310;29;20032;-85
2022/08/28 00:10:59;;;;;;;6.32;2.15;;;13.10;99.90;;;;;;4899221;29;20029;-86
2022/08/28 00:13:25;;;;;;;6.75;2.08;;;13.10;99.90;;;;;;4899082;29;20072;-85
2022/08/28 00:15:56;;;;;;;7.40;1.83;;;13.10;99.90;;;;;;4899011;29;20033;-85
2022/08/28 00:18:23;;;;;;;5.40;1.33;;;13.10;99.90;;;;;;4899077;29;20028;-85
2022/08/28 00:20:49;;;;;;;7.07;1.98;;;13.10;99.90;;;;;;4898160;29;20025;-85
2022/08/28 00:23:16;;;;;;;6.63;1.77;;;13.20;99.90;;;;;;4881390;29;20017;-85
2022/08/28 00:25:41;;;;;;;7.45;2.13;;;13.10;99.90;;;;;;4880084;29;20438;-85
2022/08/28 00:28:09;;;;;;;7.65;1.85;;;13.10;99.90;;;;;;4880196;29;20112;-85
2022/08/28 00:30:47;;;;;;;7.40;1.80;;;13.00;99.90;;;;;;4881451;29;20033;-85
2022/08/28 00:33:18;;;;;;;5.13;1.67;;;13.10;99.90;;;;;;4891850;23;20132;-76
2022/08/28 00:35:45;;;;;;;8.05;1.90;;;13.20;99.90;;;;;;4878092;29;20467;-76
2022/08/28 00:38:11;;;;;;;9.82;2.15;;;13.20;99.90;;;;;;4862339;29;20458;-76
2022/08/28 00:40:39;;;;;;;7.20;1.88;;;13.20;99.90;;;;;;4868165;29;20516;-76
2022/08/28 00:43:06;;;;;;;8.73;2.08;;;13.20;99.90;;;;;;4880730;29;20021;-77
2022/08/28 00:45:33;;;;;;;5.28;1.67;;;13.10;99.90;;;;;;4880545;29;20085;-76
2022/08/28 00:47:59;;;;;;;11.02;2.30;;;13.20;99.90;;;;;;4879519;29;20367;-76
2022/08/28 00:52:03;;;;;;;7.38;1.77;;;13.20;99.90;;;;;;4864334;29;20039;-76
2022/08/28 00:53:15;;;;;;;3.95;1.90;;;13.10;99.90;;;;;;4880236;29;20031;-76
2022/08/28 00:55:41;;;;;;;4.55;1.85;;;13.10;99.90;;;;;;4879274;29;20116;-76
2022/08/28 00:58:10;;;;;;;8.15;1.90;;;13.10;99.90;;;;;;4880342;29;20058;-76
2022/08/28 01:00:38;;;;;;;7.68;1.70;;;13.00;99.90;;;;;;4880523;29;20061;-76
2022/08/28 01:03:04;;;;;;;8.85;2.10;;;13.00;99.90;;;;;;4880207;29;20021;-76
2022/08/28 01:05:33;;;;;;;5.30;2.20;;;13.00;99.90;;;;;;4880405;29;20430;-76
2022/08/28 01:07:59;;;;;;;5.93;2.00;;;13.00;99.90;;;;;;4879844;29;20033;-76
2022/08/28 01:10:27;;;;;;;10.27;2.28;;;13.00;99.90;;;;;;4879766;29;20415;-76
2022/08/28 01:12:55;;;;;;;4.43;1.80;;;12.90;99.90;;;;;;4878792;29;20096;-76
2022/08/28 01:15:24;;;;;;;8.75;2.05;;;12.90;99.90;;;;;;4880446;29;20057;-75
2022/08/28 01:17:55;;;;;;;5.13;1.70;;;12.90;99.90;;;;;;4879916;29;20052;-76
2022/08/28 01:20:25;;;;;;;6.45;1.35;;;12.90;99.90;;;;;;4879812;29;20060;-76
2022/08/28 01:23:12;;;;;;;5.50;1.48;;;12.90;99.90;;;;;;4879736;29;20085;-76
2022/08/28 01:25:44;;;;;;;7.68;1.85;;;12.80;99.90;;;;;;4879572;29;20033;-76
2022/08/28 01:28:12;;;;;;;6.57;1.80;;;12.70;99.90;;;;;;4879483;29;20049;-76
2022/08/28 01:30:43;;;;;;;5.82;1.95;;;12.70;99.90;;;;;;4879897;29;20029;-77
2022/08/28 01:33:09;;;;;;;8.05;1.70;;;12.60;99.90;;;;;;4863295;29;20049;-77
2022/08/28 01:35:39;;;;;;;4.47;1.60;;;12.50;99.90;;;;;;4861283;29;20022;-77
2022/08/28 01:38:05;;;;;;;5.85;1.65;;;12.40;99.90;;;;;;4861078;29;20618;-76
2022/08/28 01:40:36;;;;;;;6.05;2.25;;;12.30;99.90;;;;;;4861101;29;20517;-76
2022/08/28 01:43:11;;;;;;;6.72;1.88;;;12.40;99.90;;;;;;4860977;29;20359;-77
2022/08/28 01:45:37;;;;;;;7.20;1.85;;;12.30;99.90;;;;;;4860882;29;20056;-78
2022/08/28 01:48:06;;;;;;;5.53;1.80;;;12.30;99.90;;;;;;4861300;29;20048;-77
2022/08/28 01:50:32;;;;;;;5.78;1.73;;;12.30;99.90;;;;;;4860814;29;20029;-77
2022/08/28 01:52:58;;;;;;;6.78;1.73;;;12.30;99.90;;;;;;4874919;29;20037;-77
2022/08/28 01:55:24;;;;;;;9.20;2.20;;;12.30;99.90;;;;;;4860790;29;20034;-77
2022/08/28 01:57:52;;;;;;;6.63;1.88;;;12.20;99.90;;;;;;4860598;29;20026;-78
2022/08/28 02:00:19;;;;;;;4.15;1.45;;;12.20;99.90;;;;;;4860596;29;20382;-77
2022/08/28 02:02:47;;;;;;;5.13;1.40;;;12.20;99.90;;;;;;4860581;29;20154;-77
2022/08/28 02:05:13;;;;;;;4.57;1.40;;;12.10;99.90;;;;;;4860474;29;20583;-77
2022/08/28 02:07:38;;;;;;;6.88;1.42;;;12.20;99.90;;;;;;4859065;29;20367;-77
2022/08/28 02:10:10;;;;;;;5.20;1.88;;;12.10;99.90;;;;;;4860270;29;20497;-76
2022/08/28 02:12:36;;;;;;;7.40;1.70;;;12.10;99.90;;;;;;4860674;29;20033;-77
2022/08/28 02:15:04;;;;;;;6.13;1.50;;;12.10;99.90;;;;;;4860405;29;20030;-76
2022/08/28 02:17:30;;;;;;;6.10;1.58;;;12.20;99.90;;;;;;4859376;29;20033;-77
2022/08/28 02:19:55;;;;;;;5.88;2.20;;;12.30;99.90;;;;;;4860679;29;20036;-77
2022/08/28 02:22:21;;;;;;;6.97;1.73;;;12.20;99.90;;;;;;4860612;29;20032;-77
2022/08/28 02:24:46;;;;;;;7.03;1.58;;;12.20;99.90;;;;;;4860917;29;20037;-77
2022/08/28 02:27:12;;;;;;;6.50;1.55;;;12.10;99.90;;;;;;4861063;29;20034;-76
2022/08/28 02:29:38;;;;;;;4.53;1.42;;;12.10;99.90;;;;;;4860680;29;20033;-76
2022/08/28 02:32:04;;;;;;;8.63;1.33;;;12.10;99.90;;;;;;4855010;29;20058;-77
2022/08/28 02:34:31;;;;;;;3.22;1.30;;;12.10;99.90;;;;;;4845271;29;20025;-76
2022/08/28 02:36:57;;;;;;;5.53;1.67;;;12.00;99.90;;;;;;4860543;29;20469;-76
2022/08/28 02:39:23;;;;;;;5.03;1.75;;;12.00;99.90;;;;;;4859278;29;20082;-76
2022/08/28 02:41:49;;;;;;;4.50;1.35;;;11.90;99.90;;;;;;4860364;29;20040;-77
2022/08/28 02:44:16;;;;;;;5.57;1.65;;;11.90;99.90;;;;;;4861406;29;20030;-76
2022/08/28 02:46:41;;;;;;;5.20;1.70;;;11.80;99.90;;;;;;4864241;29;20101;-76
2022/08/28 02:49:07;;;;;;;6.97;1.80;;;11.70;99.90;;;;;;4863837;29;20454;-77
2022/08/28 02:51:34;;;;;;;6.03;1.63;;;11.60;99.90;;;;;;4863895;29;20082;-77
2022/08/28 02:54:00;;;;;;;2.80;1.30;;;11.60;99.90;;;;;;4863973;29;20030;-76
2022/08/28 02:56:26;;;;;;;5.43;1.65;;;11.50;99.90;;;;;;4864097;29;20078;-76
2022/08/28 02:58:52;;;;;;;8.43;1.85;;;11.60;1.00;;;;;;4863807;29;20034;-77
2022/08/28 03:01:17;;;;;;;6.13;1.77;;;11.60;1.00;;;;;;4863613;29;20041;-76
2022/08/28 03:03:43;;;;;;;6.70;1.70;;;11.60;99.90;;;;;;4863461;29;20061;-76
2022/08/28 03:06:11;;;;;;;7.40;2.00;;;11.60;1.00;;;;;;4858428;29;20042;-77
2022/08/28 03:08:37;;;;;;;4.13;1.38;;;11.50;1.00;;;;;;4844939;29;20653;-76
2022/08/28 03:11:03;;;;;;;5.85;1.73;;;11.70;1.00;;;;;;4844711;29;20105;-76
2022/08/28 03:13:29;;;;;;;4.10;1.85;;;11.70;1.00;;;;;;4844720;29;20138;-76
2022/08/28 03:15:55;;;;;;;2.92;1.30;;;11.70;1.00;;;;;;4843610;29;20506;-77
2022/08/28 03:18:21;;;;;;;7.25;1.80;;;11.60;1.00;;;;;;4844982;29;20026;-77
2022/08/28 03:20:47;;;;;;;3.38;1.38;;;11.60;1.00;;;;;;4844531;29;20040;-76
2022/08/28 03:23:25;;;;;;;4.70;1.70;;;11.60;1.00;;;;;;4844864;29;20041;-76
2022/08/28 03:25:55;;;;;;;4.10;1.27;;;11.50;1.00;;;;;;4844735;29;20072;-76
2022/08/28 03:28:20;;;;;;;;;;;11.60;1.00;;;;;;4845198;29;20057;-76
2022/08/28 03:30:46;;;;;;;3.97;1.55;;;11.60;1.00;;;;;;4843203;29;19948;-76
2022/08/28 03:33:13;;;;;;;5.38;1.70;;;11.60;1.00;;;;;;4856045;29;20454;-77
2022/08/28 03:35:38;;;;;;;7.95;1.90;;;11.50;1.00;;;;;;4863442;29;20029;-77
2022/08/28 03:38:04;;;;;;;4.43;1.88;;;11.60;1.00;;;;;;4863295;29;20048;-76
2022/08/28 03:40:31;;;;;;;6.35;1.48;;;11.60;1.00;;;;;;4861780;29;20378;-76
2022/08/28 03:42:56;;;;;;;5.32;1.85;;;11.50;1.00;;;;;;4873791;29;20690;-77
2022/08/28 03:45:22;;;;;;;5.55;1.38;;;11.60;1.00;;;;;;4863983;29;20026;-77
2022/08/28 03:47:48;;;;;;;2.78;1.35;;;11.50;1.00;;;;;;4862035;29;20025;-78
2022/08/28 03:50:15;;;;;;;3.60;1.50;;;11.60;1.00;;;;;;4862883;29;20048;-77
2022/08/28 03:52:41;;;;;;;7.38;1.60;;;11.60;1.00;;;;;;4862895;29;20133;-77
2022/08/28 03:55:09;;;;;;;2.78;1.42;;;11.50;1.00;;;;;;4861259;29;20112;-77
2022/08/28 03:57:35;;;;;;;5.28;1.60;;;11.50;1.00;;;;;;4862856;29;20113;-77
2022/08/28 04:00:03;;;;;;;7.00;1.40;;;11.50;1.00;;;;;;4862581;29;20104;-77
2022/08/28 04:02:29;;;;;;;5.53;1.58;;;11.50;1.00;;;;;;4862896;29;20018;-77
2022/08/28 04:04:54;;;;;;;4.57;1.65;;;11.60;1.00;;;;;;4862754;29;20027;-77
2022/08/28 04:07:21;;;;;;;5.45;1.70;;;11.60;1.00;;;;;;4862586;29;20466;-77
2022/08/28 04:09:46;;;;;;;7.40;1.40;;;11.60;1.00;;;;;;4862361;29;20393;-76
2022/08/28 04:12:13;;;;;;;4.85;1.20;;;11.60;1.00;;;;;;4862423;29;20026;-77
2022/08/28 04:14:38;;;;;;;5.60;1.88;;;11.60;1.00;;;;;;4862449;29;20030;-77
2022/08/28 04:17:05;;;;;;;5.47;1.70;;;11.60;1.00;;;;;;4862674;29;20442;-76
2022/08/28 04:19:30;;;;;;;6.35;1.65;;;11.60;1.00;;;;;;4862415;29;20033;-77
2022/08/28 04:21:56;;;;;;;4.78;1.67;;;11.70;1.00;;;;;;4862480;29;20037;-76
2022/08/28 04:24:21;;;;;;;4.97;1.40;;;11.80;1.00;;;;;;4862241;29;20065;-77
2022/08/28 04:26:47;;;;;;;5.35;1.33;;;11.90;1.00;;;;;;4862191;29;20037;-76
2022/08/28 04:29:13;;;;;;;4.38;1.63;;;12.10;99.90;;;;;;4862196;29;20041;-76
2022/08/28 04:31:39;;;;;;;5.38;1.42;;;12.10;99.90;;;;;;4861853;29;20034;-77
2022/08/28 04:34:07;;;;;;;6.85;1.75;;;12.20;99.90;;;;;;4861069;29;20084;-78
2022/08/28 04:36:34;;;;;;;7.13;1.40;;;12.20;99.90;;;;;;4861483;29;20025;-77
2022/08/28 04:39:00;;;;;;;7.72;1.95;;;12.30;99.90;;;;;;4861485;29;20409;-77
2022/08/28 04:41:27;;;;;;;5.30;1.40;;;12.60;99.90;;;;;;4862661;29;20037;-77
2022/08/28 04:43:55;;;;;;;5.70;1.30;;;12.70;99.90;;;;;;4861607;29;20082;-76
2022/08/28 04:46:21;;;;;;;5.55;1.48;;;12.90;99.90;;;;;;4862614;29;20033;-77
2022/08/28 04:48:46;;;;;;;4.60;1.95;;;13.00;99.90;;;;;;4846628;29;20045;-76
2022/08/28 04:51:19;;;;;;;8.55;1.73;;;13.10;99.90;;;;;;4844344;29;20026;-78
2022/08/28 04:53:45;;;;;;;6.72;1.58;;;13.20;99.90;;;;;;4862610;29;20038;-77
2022/08/28 04:56:12;;;;;;;6.80;1.50;;;13.00;99.90;;;;;;4862374;29;20036;-77
2022/08/28 04:58:39;;;;;;;6.05;1.95;;;12.90;99.90;;;;;;4861053;29;20025;-77
2022/08/28 05:01:08;;;;;;;6.28;1.95;;;13.00;99.90;;;;;;4860971;29;20033;-76
2022/08/28 05:03:34;;;;;;;4.28;1.45;;;13.00;99.90;;;;;;4842775;29;20033;-76
2022/08/28 05:06:00;;;;;;;4.72;1.60;;;13.00;99.90;;;;;;4843512;29;20045;-76
2022/08/28 05:08:27;;;;;;;5.88;1.60;;;13.20;99.90;;;;;;4843106;29;20034;-76
2022/08/28 05:10:53;;;;;;;4.75;1.50;;;13.40;99.90;;;;;;4844222;29;20142;-77
2022/08/28 05:13:19;;;;;;;5.15;1.80;;;13.50;99.90;;;;;;4843819;29;20437;-76
2022/08/28 05:15:52;;;;;;;5.97;1.35;;;13.70;99.90;;;;;;4842587;29;20040;-76
2022/08/28 05:18:20;;;;;;;5.63;1.50;;;13.90;99.90;;;;;;4843751;29;20054;-77
2022/08/28 05:20:47;;;;;;;7.90;1.40;;;13.90;99.90;;;;;;4843748;29;20066;-77
2022/08/28 05:23:15;;;;;;;5.45;1.60;;;13.90;99.90;;;;;;4857669;29;20026;-77
2022/08/28 05:25:43;;;;;;;5.15;1.50;;;14.00;99.90;;;;;;4843457;29;20036;-76
2022/08/28 05:28:10;;;;;;;8.35;1.92;;;14.10;99.90;;;;;;4843428;29;20106;-76
2022/08/28 05:30:37;;;;;;;5.25;1.50;;;14.10;99.90;;;;;;4843340;29;20107;-79
2022/08/28 05:33:04;;;;;;;6.00;1.60;;;14.10;99.90;;;;;;4842371;29;20089;-77
2022/08/28 05:35:34;;;;;;;3.40;1.45;;;14.20;99.90;;;;;;4843558;29;20038;-77
2022/08/28 05:38:00;;;;;;;6.20;1.40;;;14.30;99.90;;;;;;4880878;29;20054;-76
2022/08/28 05:40:25;;;;;;;4.20;1.30;;;14.30;99.90;;;;;;4880518;29;20033;-76
2022/08/28 05:42:52;;;;;;;5.20;1.35;;;14.50;99.90;;;;;;4880542;29;20025;-77
2022/08/28 05:45:17;;;;;;;7.57;2.20;;;14.50;99.90;;;;;;4880642;29;20037;-76
2022/08/28 05:47:43;;;;;;;3.22;1.25;;;14.60;99.90;;;;;;4880607;29;20040;-76
2022/08/28 05:50:13;;;;;;;5.75;1.20;;;14.70;99.90;;;;;;4880802;29;20029;-77
2022/08/28 05:52:42;;;;;;;6.07;1.40;;;14.80;99.90;;;;;;4865305;29;20137;-76
2022/08/28 05:55:14;;;;;;;4.15;1.42;;;14.90;99.90;;;;;;4861574;29;20116;-76
2022/08/28 05:57:45;;;;;;;4.18;1.38;;;15.00;99.90;;;;;;4861194;29;20018;-79
2022/08/28 06:00:12;;;;;;;5.28;1.38;;;15.10;99.90;;;;;;4861427;29;20037;-79
2022/08/28 06:02:41;;;;;;;3.30;1.17;;;15.20;99.90;;;;;;4861602;29;20022;-79
2022/08/28 06:05:08;;;;;;;4.80;1.40;;;15.10;99.90;;;;;;4861615;29;20036;-78
2022/08/28 06:07:34;;;;;;;3.85;1.08;;;15.20;99.90;;;;;;4861572;29;20030;-78
2022/08/28 06:10:00;;;;;;;4.68;1.70;;;15.30;99.90;;;;;;4860994;29;20105;-76
2022/08/28 06:12:25;;;;;;;5.63;1.77;;;15.40;99.90;;;;;;4860921;29;20072;-77
2022/08/28 06:14:51;;;;;;;5.30;1.58;;;15.60;99.90;;;;;;4860974;29;20519;-78
2022/08/28 06:17:17;;;;;;;7.32;1.40;;;15.80;99.90;;;;;;4860891;29;20029;-76
2022/08/28 06:19:43;;;;;;;3.72;1.10;;;16.00;99.90;;;;;;4860032;29;20030;-78
2022/08/28 06:22:11;;;;;;;4.22;1.20;;;16.30;99.90;;;;;;4860647;29;20022;-79
2022/08/28 06:24:37;;;;;;;4.53;1.10;;;16.90;99.90;;;;;;4859876;29;20026;-76
2022/08/28 06:27:03;;;;;;;5.22;1.13;;;17.40;99.90;;;;;;4861067;29;20044;-76
2022/08/28 06:29:29;;;;;;;3.40;1.02;;;17.40;99.90;;;;;;4859701;29;20029;-76
2022/08/28 06:32:00;;;;;;;3.60;1.00;;;17.20;99.90;;;;;;4860814;29;20082;-77
2022/08/28 06:34:27;;;;;;;5.22;1.20;;;17.10;99.90;;;;;;4860397;29;20063;-77
2022/08/28 06:36:53;;;;;;;5.90;1.00;;;17.30;99.90;;;;;;4861068;29;20096;-77
2022/08/28 06:39:19;;;;;;;3.75;1.52;;;17.40;99.90;;;;;;4860948;29;20030;-77
2022/08/28 06:41:45;;;;;;;5.30;1.63;;;17.50;99.90;;;;;;4859545;29;20032;-77
2022/08/28 06:44:13;;;;;;;4.47;1.10;;;18.30;99.90;;;;;;4860694;29;20045;-77
2022/08/28 06:46:40;;;;;;;5.32;1.10;;;23.50;99.90;;;;;;4859410;29;20025;-77
2022/08/28 06:49:07;;;;;;;2.60;0.73;;;26.20;99.90;;;;;;4860987;29;20045;-79
2022/08/28 06:51:34;;;;;;;1.60;0.70;;;26.60;99.90;;;;;;4861988;29;20037;-78
2022/08/28 06:54:00;;;;;;;5.38;1.73;;;29.20;99.90;;;;;;4870450;29;20108;-79
2022/08/28 06:56:26;;;;;;;5.07;0.93;;;30.50;99.90;;;;;;4878412;29;20033;-79
2022/08/28 06:58:52;;;;;;;2.65;0.80;;;30.70;99.90;;;;;;4879828;29;20032;-79
2022/08/28 07:01:25;;;;;;;3.13;1.13;;;31.20;99.90;;;;;;4879927;29;20025;-78
2022/08/28 07:03:53;;;;;;;3.58;0.90;;;32.80;99.90;;;;;;4879364;29;20021;-79
2022/08/28 07:06:20;;;;;;;2.15;1.00;;;33.40;99.90;;;;;;4878059;29;20104;-79
2022/08/28 07:08:46;;;;;;;4.85;0.73;;;32.50;99.90;;;;;;4879621;29;20025;-79
2022/08/28 07:11:14;;;;;;;6.28;0.88;;;33.00;99.90;;;;;;4879356;29;20374;-79
2022/08/28 07:13:41;;;;;;;2.20;0.65;;;33.60;99.90;;;;;;4879923;29;20032;-79
2022/08/28 07:16:07;;;;;;;2.00;0.80;;;32.70;99.90;;;;;;4878435;29;20078;-79
2022/08/28 07:18:33;;;;;;;1.00;0.50;;;32.50;99.90;;;;;;4878215;29;20410;-79
2022/08/28 07:20:59;;;;;;;3.28;0.98;;;32.70;99.90;;;;;;4879571;29;20025;-79
2022/08/28 07:23:26;;;;;;;3.95;0.77;;;34.70;99.90;;;;;;4877928;29;20025;-79
2022/08/28 07:25:53;;;;;;;2.85;1.00;;;33.40;99.90;;;;;;4878029;29;20040;-79
2022/08/28 07:28:19;;;;;;;3.75;0.82;;;33.70;99.90;;;;;;4878281;29;20025;-79
2022/08/28 07:30:44;;;;;;;3.55;1.25;;;34.10;99.90;;;;;;4862972;29;20477;-79
2022/08/28 07:33:10;;;;;;;3.80;0.82;;;34.60;99.90;;;;;;4863426;29;20077;-79
2022/08/28 07:35:36;;;;;;;1.67;0.45;;;34.10;97.40;;;;;;4855956;29;20048;-79
2022/08/28 07:38:01;;;;;;;1.92;0.90;;;35.60;98.30;;;;;;4863850;29;20040;-79
2022/08/28 07:40:27;;;;;;;2.92;0.70;;;35.70;96.40;;;;;;4849222;29;20033;-79
2022/08/28 07:45:37;;;;;;;3.50;1.00;;;34.40;94.70;;;;;;4845440;29;20033;-80
2022/08/28 07:48:07;;;;;;;4.05;0.88;;;34.90;94.70;;;;;;4845397;29;20034;-79
2022/08/28 07:50:33;;;;;;;;;;;35.50;93.60;;;;;;4846402;29;20166;-79
2022/08/28 07:52:59;;;;;;;1.83;0.73;;;33.30;91.30;;;;;;4862613;29;19908;-80
2022/08/28 07:55:26;;;;;;;3.05;0.98;;;32.60;91.10;;;;;;4863307;29;20040;-79
2022/08/28 07:57:52;;;;;;;1.75;0.63;;;27.40;93.30;;;;;;4864232;29;20018;-79
2022/08/28 08:00:18;;;;;;;3.33;0.90;;;24.60;97.00;;;;;;4864036;29;20022;-79
2022/08/28 08:02:44;;;;;;;1.65;0.77;;;24.50;99.90;;;;;;4863901;29;20034;-79
2022/08/28 08:05:09;;;;;;;4.22;0.98;;;28.40;99.90;;;;;;4863479;29;20093;-79
2022/08/28 08:07:38;;;;;;;1.35;0.70;;;26.60;99.90;;;;;;4863437;29;20035;-79
2022/08/28 08:10:05;;;;;;;1.25;0.80;;;25.50;99.90;;;;;;4863806;29;20017;-79
2022/08/28 08:12:32;;;;;;;2.65;0.80;;;25.00;99.90;;;;;;4863238;29;20418;-79
2022/08/28 08:14:58;;;;;;;3.47;0.98;;;29.70;99.90;;;;;;4862092;29;20135;-79
2022/08/28 08:17:23;;;;;;;1.13;0.63;;;32.40;99.90;;;;;;4863405;29;20452;-79
2022/08/28 08:19:49;;;;;;;2.78;0.70;;;33.60;98.50;;;;;;4863165;29;20034;-78
2022/08/28 08:22:15;;;;;;;4.32;0.90;;;29.00;96.90;;;;;;4863276;29;20081;-79
2022/08/28 08:24:41;;;;;;;2.53;0.98;;;28.40;99.70;;;;;;4863244;29;20406;-79
2022/08/28 08:27:09;;;;;;;1.95;0.80;;;31.50;97.90;;;;;;4859158;29;20040;-79
2022/08/28 08:29:37;;;;;;;1.48;0.60;;;32.00;97.10;;;;;;4860524;29;20017;-80
2022/08/28 08:32:06;;;;;;;2.63;0.90;;;29.50;96.40;;;;;;4862666;29;20026;-80
2022/08/28 08:34:35;;;;;;;3.30;0.90;;;27.80;96.40;;;;;;4861154;29;20049;-80
2022/08/28 08:37:00;;;;;;;3.25;1.00;;;26.40;98.10;;;;;;4862596;29;20057;-77
2022/08/28 08:39:26;;;;;;;2.30;0.45;;;25.90;99.10;;;;;;4862687;29;20111;-79
2022/08/28 08:41:55;;;;;;;3.70;0.90;;;25.90;99.90;;;;;;4878216;29;20032;-80
2022/08/28 08:44:41;;;;;;;3.47;0.90;;;24.40;99.90;;;;;;4881184;29;20036;-79
2022/08/28 08:47:11;;;;;;;3.72;1.08;;;24.80;99.90;;;;;;4875257;29;20105;-79
2022/08/28 08:49:40;;;;;;;0.75;0.60;;;24.20;99.90;;;;;;4861263;29;20030;-80
2022/08/28 08:52:14;;;;;;;4.53;0.90;;;23.50;99.90;;;;;;4862506;29;20029;-80
2022/08/28 08:54:42;;;;;;;3.92;0.95;;;22.80;99.90;;;;;;4862191;29;20025;-79
2022/08/28 08:57:13;;;;;;;2.65;0.80;;;22.60;99.90;;;;;;4861981;29;20112;-79
2022/08/28 08:59:39;;;;;;;2.67;0.90;;;24.00;99.90;;;;;;4861996;29;20365;-79
2022/08/28 09:02:17;;;;;;;1.88;0.82;;;30.20;99.90;;;;;;4863040;29;20077;-79
2022/08/28 09:04:50;;;;;;;1.30;0.80;;;27.20;99.90;;;;;;4862526;29;20029;-78
2022/08/28 09:07:20;;;;;;;2.20;0.60;;;29.70;99.90;;;;;;4862029;29;20066;-79
2022/08/28 09:09:48;;;;;;;;;;;30.90;99.70;;;;;;4862420;29;20041;-79
2022/08/28 09:12:21;;;;;;;1.85;1.08;;;29.90;99.90;;;;;;4860868;29;20413;-79
2022/08/28 09:15:08;;;;;;;2.88;1.10;;;30.10;98.10;;;;;;4862404;29;20048;-79
2022/08/28 09:17:34;;;;;;;4.28;1.20;;;26.60;98.60;;;;;;4878196;29;20485;-79
2022/08/28 09:20:00;;;;;;;2.95;0.98;;;30.50;99.90;;;;;;4843474;29;20090;-79
2022/08/28 09:22:25;;;;;;;1.95;0.75;;;32.50;98.50;;;;;;4843227;29;20026;-79
2022/08/28 09:24:51;;;;;;;3.63;0.80;;;34.20;95.90;;;;;;4843132;29;20382;-79
2022/08/28 09:27:21;;;;;;;1.63;0.57;;;35.90;95.00;;;;;;4844661;29;20037;-79
2022/08/28 09:29:57;;;;;;;3.33;0.93;;;29.80;92.20;;;;;;4843113;29;20121;-79
2022/08/28 09:32:43;;;;;;;4.45;1.05;;;28.40;95.80;;;;;;4842810;29;20034;-79
2022/08/28 09:35:32;;;;;;;2.83;0.60;;;30.90;94.40;;;;;;4825327;29;20080;-79
2022/08/28 09:38:19;;;;;;;1.65;0.90;;;29.40;92.70;;;;;;4823771;29;20574;-79
2022/08/28 09:43:32;;;;;;;1.58;0.90;;;33.60;94.20;;;;;;4840232;29;20070;-79
2022/08/28 09:46:04;;;;;;;2.58;0.57;;;32.30;94.40;;;;;;4843436;29;20026;-79
2022/08/28 09:48:40;;;;;;;3.58;0.80;;;30.40;90.80;;;;;;4837077;29;20164;-79
2022/08/28 09:51:08;;;;;;;4.22;1.30;;;28.10;93.10;;;;;;4836452;29;20026;-79
2022/08/28 09:53:40;;;;;;;2.28;0.70;;;32.20;93.10;;;;;;4829686;29;20068;-79
2022/08/28 09:56:18;;;;;;;1.63;0.70;;;28.40;92.80;;;;;;4833586;29;20058;-79
2022/08/28 09:58:58;;;;;;;1.52;0.98;;;31.30;93.50;;;;;;4829282;29;20042;-79
2022/08/28 10:01:48;;;;;;;4.25;1.00;;;32.20;92.20;;;;;;4824221;29;20022;-79
2022/08/28 10:04:51;;;;;;;3.50;0.90;;;32.50;92.10;;;;;;4824352;29;20041;-79
2022/08/28 10:07:23;;;;;;;3.42;1.15;;;26.50;91.70;;;;;;4824144;29;20065;-79
2022/08/28 10:10:10;;;;;;;1.33;0.60;;;25.40;94.40;;;;;;4824230;29;20034;-79
2022/08/28 10:12:49;;;;;;;1.85;0.60;;;29.10;95.70;;;;;;4826456;29;20106;-79
2022/08/28 10:15:51;;;;;;;2.10;0.90;;;27.30;94.30;;;;;;4840005;29;20026;-79
2022/08/28 10:18:39;;;;;;;2.83;1.02;;;30.50;94.90;;;;;;4825205;29;20035;-79
2022/08/28 10:21:46;;;;;;;2.73;0.83;;;30.50;94.20;;;;;;4833664;29;20090;-79
2022/08/28 10:24:19;;;;;;;3.20;1.15;;;26.10;93.30;;;;;;4810704;29;20326;-79
2022/08/28 10:27:01;;;;;;;2.80;1.48;;;24.20;96.20;;;;;;4824068;29;20494;-79
2022/08/28 10:29:30;;;;;;;4.50;1.38;;;23.90;97.90;;;;;;4836751;29;20435;-79
2022/08/28 10:32:23;;;;;;;3.28;0.73;;;29.00;98.00;;;;;;4826193;29;20356;-79
2022/08/28 10:35:17;;;;;;;2.33;0.75;;;26.70;95.90;;;;;;4840588;29;20062;-79
2022/08/28 10:38:05;;;;;;;2.17;0.98;;;24.20;97.90;;;;;;4860728;29;20066;-79
2022/08/28 10:40:38;;;;;;;5.80;1.15;;;24.60;98.40;;;;;;4860414;29;20025;-79
2022/08/28 10:43:12;;;;;;;2.60;0.98;;;27.60;97.10;;;;;;4860531;29;20065;-79
2022/08/28 10:45:39;;;;;;;3.13;0.85;;;30.10;97.00;;;;;;4860425;29;20053;-79
2022/08/28 10:48:18;;;;;;;1.63;0.80;;;30.60;94.70;;;;;;4860417;29;20034;-79
2022/08/28 10:50:55;;;;;;;3.22;0.85;;;30.90;95.80;;;;;;4860595;29;20486;-79
2022/08/28 10:53:29;;;;;;;0.95;0.52;;;31.10;93.30;;;;;;4860449;29;20385;-79
2022/08/28 10:56:01;;;;;;;4.30;1.40;;;30.40;92.90;;;;;;4860314;29;20104;-79
2022/08/28 10:58:27;;;;;;;1.45;0.63;;;29.70;93.60;;;;;;4848698;29;20586;-79
2022/08/28 11:01:00;;;;;;;3.90;0.88;;;30.40;93.50;;;;;;4842022;29;20026;-79
2022/08/28 11:03:28;;;;;;;2.47;1.02;;;28.10;93.10;;;;;;4843015;29;20034;-79
2022/08/28 11:05:59;;;;;;;1.60;0.90;;;25.80;95.20;;;;;;4864075;29;20449;-79
2022/08/28 11:08:29;;;;;;;1.98;0.75;;;25.40;95.70;;;;;;4883655;29;20032;-78
2022/08/28 11:10:59;;;;;;;3.08;1.15;;;24.60;96.60;;;;;;4866337;29;20034;-77
2022/08/28 11:13:50;;;;;;;2.40;0.75;;;23.80;96.90;;;;;;4870490;29;20025;-77
2022/08/28 11:16:20;;;;;;;3.03;1.02;;;23.40;98.00;;;;;;4882705;29;20025;-77
2022/08/28 11:19:14;;;;;;;4.78;0.80;;;23.00;99.90;;;;;;4882256;29;20029;-77
2022/08/28 11:21:46;;;;;;;2.03;0.75;;;22.80;99.90;;;;;;4892431;29;20025;-77
2022/08/28 11:24:24;;;;;;;3.45;0.80;;;21.80;99.90;;;;;;4879309;29;20028;-79
2022/08/28 11:27:05;;;;;;;2.75;0.88;;;21.80;99.90;;;;;;4866894;29;20060;-79
2022/08/28 11:29:59;;;;;;;1.15;0.77;;;22.30;99.90;;;;;;4847450;29;20038;-79
2022/08/28 11:32:30;;;;;;;3.97;1.15;;;22.30;99.90;;;;;;4845530;29;20026;-80
2022/08/28 11:35:11;;;;;;;6.82;1.30;;;22.00;99.90;;;;;;4844046;29;20122;-78
2022/08/28 11:37:43;;;;;;;2.58;0.82;;;22.50;99.90;;;;;;4853455;29;20036;-78
2022/08/28 11:40:28;;;;;;;2.97;1.35;;;22.20;99.90;;;;;;4868500;29;20030;-78
2022/08/28 11:43:15;;;;;;;2.05;0.85;;;22.90;99.90;;;;;;4865223;29;20034;-80
2022/08/28 11:45:44;;;;;;;2.55;0.90;;;22.20;99.90;;;;;;4844894;29;20034;-81
2022/08/28 11:48:38;;;;;;;0.83;0.40;;;22.10;99.90;;;;;;4869007;29;20474;-77
2022/08/28 11:51:38;;;;;;;3.63;0.93;;;22.10;99.90;;;;;;4861409;29;20276;-79
2022/08/28 11:54:31;;;;;;;1.58;0.70;;;22.80;99.90;;;;;;4863122;29;20181;-76
2022/08/28 11:57:24;;;;;;;0.65;0.30;;;23.60;99.90;;;;;;4870174;29;20025;-78
2022/08/28 12:00:00;;;;;;;3.00;0.98;;;22.70;99.90;;;;;;4881757;29;20029;-78
2022/08/28 12:02:38;;;;;;;1.88;0.60;;;23.20;99.90;;;;;;4882028;29;20475;-78
2022/08/28 12:05:29;;;;;;;3.80;1.60;;;22.90;99.90;;;;;;4867301;29;20033;-79
2022/08/28 12:07:55;;;;;;;4.97;0.90;;;23.20;99.90;;;;;;4871676;29;20041;-78
2022/08/28 12:10:24;;;;;;;1.83;0.80;;;22.60;99.90;;;;;;4894084;29;20081;-78
2022/08/28 12:12:54;;;;;;;2.05;0.90;;;22.20;99.90;;;;;;4888480;29;20021;-78
2022/08/28 12:15:26;;;;;;;;;;;22.50;99.90;;;;;;4885758;29;20053;-78
2022/08/28 12:18:03;;;;;;;3.50;0.80;;;23.20;99.90;;;;;;4871495;29;19908;-78
2022/08/28 12:20:57;;;;;;;2.88;0.85;;;23.30;99.90;;;;;;4874014;29;20037;-77
2022/08/28 12:23:35;;;;;;;0.98;0.60;;;23.50;99.90;;;;;;4869970;29;20052;-78
2022/08/28 12:26:18;;;;;;;3.88;1.20;;;22.90;99.90;;;;;;4889944;29;20406;-77
2022/08/28 12:28:49;;;;;;;1.55;0.90;;;22.50;99.90;;;;;;4880785;29;20065;-77
2022/08/28 12:32:17;;;;;;;3.28;0.70;;;23.00;99.90;;;;;;4882016;29;20041;-77
2022/08/28 12:34:50;;;;;;;2.85;0.77;;;22.80;99.90;;;;;;4861042;29;20055;-78
2022/08/28 12:37:28;;;;;;;2.53;1.13;;;22.80;99.90;;;;;;4874654;29;20034;-78
2022/08/28 12:39:57;;;;;;;6.60;1.02;;;23.40;99.90;;;;;;4861997;29;20112;-78
2022/08/28 12:42:30;;;;;;;5.13;1.10;;;23.10;99.90;;;;;;4865011;29;20037;-78
2022/08/28 12:45:02;;;;;;;1.42;0.80;;;23.50;99.90;;;;;;4862481;29;20101;-78
2022/08/28 12:47:28;;;;;;;2.10;0.88;;;24.00;99.90;;;;;;4864001;29;20053;-78
2022/08/28 12:49:54;;;;;;;0.80;0.50;;;24.40;99.90;;;;;;4864055;29;20060;-77
2022/08/28 12:52:22;;;;;;;3.10;0.75;;;23.50;99.90;;;;;;4863529;29;20057;-78
2022/08/28 12:54:50;;;;;;;2.45;1.00;;;22.80;99.90;;;;;;4863556;29;20081;-78
2022/08/28 12:57:19;;;;;;;2.03;1.00;;;22.50;99.90;;;;;;4863823;29;20084;-78
2022/08/28 12:59:47;;;;;;;1.58;0.55;;;22.50;99.90;;;;;;4862932;29;20104;-78
2022/08/28 13:02:32;;;;;;;2.28;1.00;;;22.60;99.90;;;;;;4863036;29;20025;-78
2022/08/28 13:05:10;;;;;;;2.97;1.05;;;22.70;99.90;;;;;;4862883;29;20116;-77
2022/08/28 13:07:44;;;;;;;2.55;0.90;;;22.90;99.90;;;;;;4863060;29;20018;-77
2022/08/28 13:10:18;;;;;;;2.72;0.80;;;22.80;99.90;;;;;;4862975;29;20030;-77